Airport View

Enter AWOS ICAO identifier for current METAR.

ex. KFNL

KOLG 171235Z AUTO 21005KT 1 1/2SM OVC003 00/00 A2985 RMK AO1

17 Nov 2019 12:41

Frequency: 119.6

Phone: 715-378-2031

Other Area AWOS: KHYR - KSUW - KDYT - KDLH

TAF KHYR 171128Z 1712/1812 19006KT 3SM -SN OVC008 TEMPO 1712/1714 1 1/2SM -SN BR FM171500 25005KT 3SM BR VCSH OVC003 FM171800 28006KT P6SM OVC005 FM172000 28007KT P6SM OVC015 FM180200 00000KT P6SM OVC015